createdAt,value
2018-05-07T00:00:58.880Z,56.13
2018-05-07T00:01:59.383Z,56.23
2018-05-07T00:02:58.769Z,56.23
2018-05-07T00:03:58.649Z,56.32
2018-05-07T00:05:19.566Z,56.23
2018-05-07T00:05:58.614Z,56.04
2018-05-07T00:06:58.467Z,56.23
2018-05-07T00:07:58.364Z,56.13
2018-05-07T00:08:58.369Z,56.42
2018-05-07T00:09:58.251Z,56.04
2018-05-07T00:11:19.136Z,56.61
2018-05-07T00:11:58.086Z,57.19
2018-05-07T00:12:58.012Z,56.97
2018-05-07T00:13:57.946Z,57.73
2018-05-07T00:14:57.875Z,57.64
2018-05-07T00:15:57.798Z,57.45
2018-05-07T00:17:18.712Z,58.22
2018-05-07T00:17:57.658Z,58.40
2018-05-07T00:18:57.588Z,58.88
2018-05-07T00:19:57.520Z,58.40
2018-05-07T00:20:57.473Z,58.40
2018-05-07T00:21:57.372Z,58.31
2018-05-07T00:23:18.287Z,57.73
2018-05-07T00:23:57.229Z,57.92
2018-05-07T00:24:57.158Z,57.83
2018-05-07T00:25:57.089Z,58.31
2018-05-07T00:26:57.022Z,58.40
2018-05-07T00:27:56.947Z,58.40
2018-05-07T00:29:17.864Z,58.69
2018-05-07T00:29:56.828Z,58.59
2018-05-07T00:30:56.775Z,57.73
2018-05-07T00:31:56.666Z,58.40
2018-05-07T00:32:56.590Z,57.54
2018-05-07T00:33:56.520Z,57.54
2018-05-07T00:35:17.437Z,58.31
2018-05-07T00:35:56.380Z,57.54
2018-05-07T00:36:56.307Z,58.02
2018-05-07T00:37:56.238Z,59.65
2018-05-07T00:38:56.163Z,59.65
2018-05-07T00:39:56.094Z,59.27
2018-05-07T00:41:17.005Z,59.75
2018-05-07T00:41:55.953Z,58.79
2018-05-07T00:42:55.882Z,58.69
2018-05-07T00:43:55.812Z,59.75
2018-05-07T00:44:55.754Z,59.43
2018-05-07T00:45:55.679Z,59.23
2018-05-07T00:47:16.578Z,59.14
2018-05-07T00:47:55.531Z,60.00
2018-05-07T00:48:55.470Z,61.82
2018-05-07T00:49:55.388Z,61.54
2018-05-07T00:50:55.318Z,61.88
2018-05-07T00:51:55.247Z,61.79
2018-05-07T00:53:16.159Z,62.94
2018-05-07T00:53:55.127Z,63.51
2018-05-07T00:54:55.029Z,64.75
2018-05-07T00:55:54.958Z,66.57
2018-05-07T00:56:54.885Z,66.76
2018-05-07T00:57:54.830Z,66.63
2018-05-07T00:59:15.732Z,66.09
2018-05-07T00:59:54.664Z,65.87
2018-05-07T01:00:54.623Z,65.77
2018-05-07T01:01:54.538Z,66.44
2018-05-07T01:02:54.459Z,66.83
2018-05-07T01:03:54.384Z,66.92
2018-05-07T01:05:15.298Z,67.59
2018-05-07T01:05:54.249Z,66.73
2018-05-07T01:06:54.171Z,66.63
2018-05-07T01:07:54.100Z,67.30
2018-05-07T01:08:54.024Z,67.02
2018-05-07T01:09:53.965Z,66.54
2018-05-07T01:11:14.875Z,66.35
2018-05-07T01:11:53.828Z,65.87
2018-05-07T01:12:53.836Z,65.48
2018-05-07T01:13:53.668Z,64.43
2018-05-07T01:14:53.616Z,64.43
2018-05-07T01:15:53.545Z,64.15
2018-05-07T01:17:14.436Z,63.70
2018-05-07T01:17:53.379Z,64.09
2018-05-07T01:18:53.320Z,64.18
2018-05-07T01:19:53.251Z,63.70
2018-05-07T01:20:53.171Z,63.70
2018-05-07T01:21:53.091Z,63.70
2018-05-07T01:23:14.005Z,64.18
2018-05-07T01:23:52.976Z,63.80
2018-05-07T01:24:52.885Z,63.89
2018-05-07T01:25:52.811Z,63.60
2018-05-07T01:26:52.739Z,63.70
2018-05-07T01:27:52.670Z,63.96
2018-05-07T01:29:13.583Z,63.67
2018-05-07T01:29:52.526Z,63.70
2018-05-07T01:30:52.446Z,63.76
2018-05-07T01:31:52.400Z,63.60
2018-05-07T01:32:52.307Z,62.65
2018-05-07T01:33:52.238Z,62.37
2018-05-07T01:35:13.143Z,62.46
2018-05-07T01:35:52.098Z,62.55
2018-05-07T01:36:52.020Z,62.55
2018-05-07T01:37:51.947Z,62.46
2018-05-07T01:38:51.870Z,62.65
2018-05-07T01:39:51.800Z,62.74
2018-05-07T01:41:12.716Z,62.74
2018-05-07T01:41:51.659Z,63.13
2018-05-07T01:42:51.614Z,63.42
2018-05-07T01:43:51.512Z,63.03
2018-05-07T01:44:51.442Z,63.10
2018-05-07T01:45:51.370Z,63.57
2018-05-07T01:47:12.283Z,63.76
2018-05-07T01:47:51.252Z,63.86
2018-05-07T01:48:51.170Z,63.67
2018-05-07T01:49:51.092Z,64.15
2018-05-07T01:50:51.009Z,66.09
2018-05-07T01:51:50.943Z,64.85
2018-05-07T01:53:11.855Z,63.70
2018-05-07T01:53:50.802Z,63.67
2018-05-07T01:54:50.728Z,64.43
2018-05-07T01:55:50.652Z,65.11
2018-05-07T01:56:50.580Z,65.58
2018-05-07T01:57:50.512Z,66.16
2018-05-07T01:59:11.425Z,67.49
2018-05-07T01:59:50.372Z,67.97
2018-05-07T02:00:50.295Z,68.07
2018-05-07T02:01:50.223Z,68.99
2018-05-07T02:02:50.154Z,70.33
2018-05-07T02:03:50.077Z,68.80
2018-05-07T02:05:10.992Z,68.32
2018-05-07T02:05:49.933Z,68.13
2018-05-07T02:06:49.862Z,68.04
2018-05-07T02:07:49.800Z,68.41
2018-05-07T02:08:49.728Z,68.23
2018-05-07T02:09:49.643Z,68.32
2018-05-07T02:11:10.564Z,68.70
2018-05-07T02:11:49.503Z,68.99
2018-05-07T02:12:49.430Z,69.47
2018-05-07T02:13:49.355Z,69.09
2018-05-07T02:14:49.284Z,68.70
2018-05-07T02:15:49.216Z,68.80
2018-05-07T02:17:10.134Z,68.32
2018-05-07T02:17:49.072Z,69.27
2018-05-07T02:18:48.998Z,69.09
2018-05-07T02:19:48.934Z,68.13
2018-05-07T02:20:48.854Z,68.04
2018-05-07T02:21:48.789Z,67.84
2018-05-07T02:23:09.696Z,68.23
2018-05-07T02:23:48.641Z,68.51
2018-05-07T02:24:48.574Z,68.23
2018-05-07T02:25:48.492Z,68.00
2018-05-07T02:26:48.419Z,68.38
2018-05-07T02:27:48.346Z,68.29
2018-05-07T02:29:09.261Z,68.96
2018-05-07T02:29:48.206Z,69.76
2018-05-07T02:30:48.137Z,69.76
2018-05-07T02:31:48.058Z,69.47
2018-05-07T02:32:47.995Z,69.56
2018-05-07T02:33:47.922Z,70.23
2018-05-07T02:35:08.829Z,69.66
2018-05-07T02:35:47.779Z,69.76
2018-05-07T02:36:47.701Z,69.91
2018-05-07T02:37:47.635Z,70.42
2018-05-07T02:38:47.557Z,71.47
2018-05-07T02:39:47.501Z,71.95
2018-05-07T02:41:08.394Z,71.53
2018-05-07T02:41:47.363Z,71.28
2018-05-07T02:42:47.311Z,70.77
2018-05-07T02:43:47.194Z,70.29
2018-05-07T02:44:47.124Z,71.63
2018-05-07T02:45:47.053Z,71.63
2018-05-07T02:47:07.973Z,72.58
2018-05-07T02:47:46.907Z,72.20
2018-05-07T02:48:46.833Z,71.92
2018-05-07T02:49:46.763Z,71.63
2018-05-07T02:50:46.694Z,72.87
2018-05-07T02:51:46.617Z,72.97
2018-05-07T02:53:07.528Z,72.01
2018-05-07T02:53:46.468Z,71.92
2018-05-07T02:54:46.407Z,71.63
2018-05-07T02:55:46.331Z,71.06
2018-05-07T02:56:46.256Z,70.77
2018-05-07T02:57:46.183Z,71.82
2018-05-07T02:59:07.092Z,70.96
2018-05-07T02:59:46.034Z,70.77
2018-05-07T03:00:45.974Z,70.77
2018-05-07T03:01:45.907Z,71.44
2018-05-07T03:02:45.871Z,71.78
2018-05-07T03:03:45.755Z,73.54
2018-05-07T03:05:06.662Z,74.11
2018-05-07T03:05:45.613Z,74.11
2018-05-07T03:06:45.546Z,74.02
2018-05-07T03:07:45.467Z,73.25
2018-05-07T03:08:45.389Z,72.93
2018-05-07T03:09:45.316Z,73.03
2018-05-07T03:11:06.224Z,72.83
2018-05-07T03:11:45.189Z,74.30
2018-05-07T03:12:45.097Z,72.93
2018-05-07T03:13:45.024Z,72.74
2018-05-07T03:14:44.957Z,73.12
2018-05-07T03:15:44.883Z,73.69
2018-05-07T03:17:05.792Z,73.41
2018-05-07T03:17:44.753Z,74.65
2018-05-07T03:18:44.657Z,74.55
2018-05-07T03:19:44.591Z,75.03
2018-05-07T03:20:44.520Z,74.65
2018-05-07T03:21:44.451Z,74.88
2018-05-07T03:23:05.356Z,74.02
2018-05-07T03:23:44.308Z,73.07
2018-05-07T03:24:44.241Z,72.97
2018-05-07T03:25:44.152Z,72.11
2018-05-07T03:26:44.079Z,71.98
2018-05-07T03:27:44.013Z,73.41
2018-05-07T03:29:04.919Z,74.37
2018-05-07T03:29:43.909Z,74.93
2018-05-07T03:30:43.791Z,74.37
2018-05-07T03:31:43.727Z,74.37
2018-05-07T03:32:43.642Z,74.08
2018-05-07T03:33:43.569Z,74.46
2018-05-07T03:35:04.498Z,75.22
2018-05-07T03:35:43.436Z,75.51
2018-05-07T03:36:43.356Z,75.13
2018-05-07T03:37:43.285Z,74.27
2018-05-07T03:38:43.275Z,74.61
2018-05-07T03:39:43.211Z,74.65
2018-05-07T03:41:04.050Z,74.42
2018-05-07T03:41:42.987Z,74.27
2018-05-07T03:42:42.917Z,74.08
2018-05-07T03:43:42.868Z,73.60
2018-05-07T03:44:42.783Z,73.28
2018-05-07T03:45:42.706Z,74.13
2018-05-07T03:47:03.612Z,74.55
2018-05-07T03:47:42.567Z,74.17
2018-05-07T03:48:42.518Z,74.37
2018-05-07T03:49:42.421Z,74.17
2018-05-07T03:50:42.343Z,74.08
2018-05-07T03:51:42.300Z,74.17
2018-05-07T03:53:03.197Z,73.12
2018-05-07T03:53:42.141Z,73.03
2018-05-07T03:54:42.074Z,73.98
2018-05-07T03:55:41.999Z,74.46
2018-05-07T03:56:41.930Z,75.22
2018-05-07T03:57:41.850Z,75.70
2018-05-07T03:59:02.738Z,74.74
2018-05-07T03:59:41.693Z,74.55
2018-05-07T04:00:41.624Z,74.27
2018-05-07T04:01:41.550Z,74.65
2018-05-07T04:02:41.489Z,74.27
2018-05-07T04:03:41.415Z,73.12
2018-05-07T04:05:02.350Z,73.79
2018-05-07T04:05:41.293Z,73.32
2018-05-07T04:06:41.194Z,73.03
2018-05-07T04:07:41.106Z,73.03
2018-05-07T04:08:41.071Z,73.03
2018-05-07T04:09:40.979Z,73.41
2018-05-07T04:11:01.881Z,74.04
2018-05-07T04:11:40.864Z,74.71
2018-05-07T04:12:40.790Z,74.71
2018-05-07T04:13:40.659Z,75.18
2018-05-07T04:14:40.591Z,76.14
2018-05-07T04:15:40.518Z,76.23
2018-05-07T04:17:01.427Z,75.85
2018-05-07T04:17:40.370Z,76.42
2018-05-07T04:18:40.303Z,76.04
2018-05-07T04:19:40.232Z,76.14
2018-05-07T04:20:40.153Z,75.95
2018-05-07T04:21:40.080Z,75.85
2018-05-07T04:23:01.001Z,75.70
2018-05-07T04:23:39.930Z,75.70
2018-05-07T04:24:39.859Z,75.98
2018-05-07T04:25:39.780Z,74.52
2018-05-07T04:26:39.714Z,75.37
2018-05-07T04:27:39.646Z,75.76
2018-05-07T04:29:00.556Z,74.71
2018-05-07T04:29:39.497Z,75.09
2018-05-07T04:30:39.422Z,75.09
2018-05-07T04:31:39.350Z,74.71
2018-05-07T04:32:39.277Z,74.32
2018-05-07T04:33:39.261Z,74.61
2018-05-07T04:35:00.113Z,74.13
2018-05-07T04:35:39.064Z,74.99
2018-05-07T04:36:38.989Z,74.80
2018-05-07T04:37:38.914Z,74.99
2018-05-07T04:38:38.838Z,74.52
2018-05-07T04:39:38.762Z,74.80
2018-05-07T04:40:59.695Z,75.47
2018-05-07T04:41:38.620Z,75.79
2018-05-07T04:42:38.546Z,76.33
2018-05-07T04:43:38.470Z,76.90
2018-05-07T04:44:38.413Z,77.03
2018-05-07T04:45:38.326Z,75.98
2018-05-07T04:46:59.260Z,76.56
2018-05-07T04:47:38.180Z,77.00
2018-05-07T04:48:38.106Z,77.19
2018-05-07T04:49:38.042Z,77.57
2018-05-07T04:50:37.972Z,78.09
2018-05-07T04:51:37.888Z,77.76
2018-05-07T04:52:58.796Z,77.19
2018-05-07T04:53:37.761Z,77.61
2018-05-07T04:54:37.679Z,77.51
2018-05-07T04:55:37.598Z,77.70
2018-05-07T04:56:37.524Z,77.51
2018-05-07T04:57:37.449Z,76.75
2018-05-07T04:58:58.376Z,76.56
2018-05-07T04:59:37.310Z,75.89
2018-05-07T05:00:37.242Z,75.32
2018-05-07T05:01:37.157Z,75.51
2018-05-07T05:02:37.093Z,75.60
2018-05-07T05:03:37.032Z,76.08
2018-05-07T05:04:57.923Z,76.27
2018-05-07T05:05:36.872Z,74.93
2018-05-07T05:06:36.797Z,74.84
2018-05-07T05:07:36.723Z,74.84
2018-05-07T05:08:36.651Z,74.65
2018-05-07T05:09:36.588Z,75.03
2018-05-07T05:10:57.484Z,75.13
2018-05-07T05:11:36.431Z,74.93
2018-05-07T05:12:36.360Z,74.17
2018-05-07T05:13:36.290Z,74.55
2018-05-07T05:14:36.220Z,74.11
2018-05-07T05:15:36.172Z,74.55
2018-05-07T05:16:57.062Z,74.17
2018-05-07T05:17:35.997Z,74.21
2018-05-07T05:18:35.960Z,74.30
2018-05-07T05:19:35.845Z,73.07
2018-05-07T05:20:35.780Z,73.92
2018-05-07T05:21:35.722Z,73.07
2018-05-07T05:22:56.617Z,73.16
2018-05-07T05:23:35.557Z,72.78
2018-05-07T05:24:35.500Z,72.68
2018-05-07T05:25:35.417Z,72.68
2018-05-07T05:26:35.344Z,72.14
2018-05-07T05:27:35.270Z,72.14
2018-05-07T05:28:56.180Z,70.90
2018-05-07T05:29:35.131Z,70.61
2018-05-07T05:30:35.049Z,71.19
2018-05-07T05:31:34.984Z,70.81
2018-05-07T05:32:34.906Z,70.81
2018-05-07T05:33:34.837Z,70.81
2018-05-07T05:34:55.754Z,71.19
2018-05-07T05:35:34.688Z,70.81
2018-05-07T05:36:34.616Z,70.52
2018-05-07T05:37:34.551Z,71.09
2018-05-07T05:38:34.478Z,70.61
2018-05-07T05:39:34.405Z,71.28
2018-05-07T05:40:55.318Z,71.28
2018-05-07T05:41:34.256Z,71.28
2018-05-07T05:42:34.199Z,71.00
2018-05-07T05:43:34.181Z,70.81
2018-05-07T05:44:34.049Z,70.81
2018-05-07T05:45:33.965Z,70.90
2018-05-07T05:46:54.878Z,70.65
2018-05-07T05:47:33.828Z,71.99
2018-05-07T05:48:33.765Z,71.51
2018-05-07T05:49:33.683Z,71.03
2018-05-07T05:50:33.619Z,71.32
2018-05-07T05:51:33.544Z,70.75
2018-05-07T05:52:54.451Z,69.15
2018-05-07T05:53:33.391Z,67.72
2018-05-07T05:54:33.326Z,67.53
2018-05-07T05:55:33.265Z,68.20
2018-05-07T05:56:33.182Z,66.47
2018-05-07T05:57:33.110Z,66.51
2018-05-07T05:58:54.020Z,66.80
2018-05-07T05:59:32.976Z,67.56
2018-05-07T06:00:32.895Z,66.99
2018-05-07T06:01:32.826Z,66.61
2018-05-07T06:02:32.743Z,66.64
2018-05-07T06:03:32.685Z,64.92
2018-05-07T06:04:53.584Z,65.97
2018-05-07T06:05:32.545Z,65.78
2018-05-07T06:06:32.459Z,65.01
2018-05-07T06:07:32.414Z,66.16
2018-05-07T06:08:32.319Z,64.53
2018-05-07T06:09:32.249Z,63.67
2018-05-07T06:10:53.156Z,64.15
2018-05-07T06:11:32.106Z,63.67
2018-05-07T06:12:32.031Z,63.96
2018-05-07T06:13:31.968Z,64.63
2018-05-07T06:14:31.945Z,63.57
2018-05-07T06:15:31.815Z,63.29
2018-05-07T06:16:52.750Z,62.74
2018-05-07T06:17:31.673Z,62.07
2018-05-07T06:18:31.601Z,61.21
2018-05-07T06:19:31.535Z,61.02
2018-05-07T06:20:31.461Z,60.64
2018-05-07T06:21:31.388Z,60.73
2018-05-07T06:22:52.317Z,61.02
2018-05-07T06:23:31.272Z,60.73
2018-05-07T06:24:31.174Z,61.21
2018-05-07T06:25:31.101Z,59.97
2018-05-07T06:26:31.033Z,59.68
2018-05-07T06:27:30.963Z,59.52
2018-05-07T06:28:51.876Z,59.04
2018-05-07T06:29:30.819Z,59.61
2018-05-07T06:30:30.744Z,59.33
2018-05-07T06:31:30.680Z,59.23
2018-05-07T06:32:30.661Z,59.52
2018-05-07T06:33:30.624Z,59.13
2018-05-07T06:34:51.450Z,58.37
2018-05-07T06:35:30.389Z,58.17
2018-05-07T06:36:30.329Z,58.46
2018-05-07T06:37:30.262Z,57.41
2018-05-07T06:38:30.178Z,57.43
2018-05-07T06:39:30.117Z,57.34
2018-05-07T06:40:51.036Z,56.96
2018-05-07T06:41:30.000Z,56.38
2018-05-07T06:42:29.899Z,57.43
2018-05-07T06:43:29.824Z,55.90
2018-05-07T06:44:29.753Z,55.13
2018-05-07T06:45:29.683Z,55.04
2018-05-07T06:46:50.597Z,55.33
2018-05-07T06:47:29.540Z,54.56
2018-05-07T06:48:29.544Z,55.35
2018-05-07T06:49:29.415Z,54.49
2018-05-07T06:50:29.330Z,54.11
2018-05-07T06:51:29.258Z,53.63
2018-05-07T06:52:50.173Z,53.72
2018-05-07T06:53:29.116Z,54.21
2018-05-07T06:54:29.050Z,54.39
2018-05-07T06:55:28.973Z,54.58
2018-05-07T06:56:28.908Z,54.68
2018-05-07T06:57:28.836Z,54.01
2018-05-07T06:58:49.754Z,53.34
2018-05-07T06:59:28.696Z,54.21
2018-05-07T07:00:28.624Z,53.82
2018-05-07T07:01:28.559Z,53.53
2018-05-07T07:02:28.508Z,53.85
2018-05-07T07:03:28.413Z,53.66
2018-05-07T07:04:49.380Z,53.36
2018-05-07T07:05:28.283Z,52.50
2018-05-07T07:06:28.206Z,52.60
2018-05-07T07:07:28.145Z,52.86
2018-05-07T07:08:28.325Z,52.79
2018-05-07T07:09:27.995Z,52.89
2018-05-07T07:10:48.911Z,52.89
2018-05-07T07:11:27.852Z,52.40
2018-05-07T07:12:27.787Z,52.50
2018-05-07T07:13:27.710Z,52.69
2018-05-07T07:14:27.649Z,51.93
2018-05-07T07:15:27.575Z,51.64
2018-05-07T07:16:48.483Z,51.73
2018-05-07T07:17:27.441Z,52.12
2018-05-07T07:18:27.364Z,52.22
2018-05-07T07:19:27.288Z,51.54
2018-05-07T07:20:27.221Z,50.58
2018-05-07T07:21:27.157Z,51.67
2018-05-07T07:22:48.066Z,51.47
2018-05-07T07:23:27.012Z,51.09
2018-05-07T07:24:26.939Z,50.32
2018-05-07T07:25:26.887Z,50.90
2018-05-07T07:26:26.807Z,50.61
2018-05-07T07:27:26.728Z,51.02
2018-05-07T07:28:47.641Z,49.87
2018-05-07T07:29:26.596Z,49.87
2018-05-07T07:30:26.519Z,49.57
2018-05-07T07:31:26.452Z,50.15
2018-05-07T07:32:26.377Z,50.63
2018-05-07T07:33:26.310Z,49.77
2018-05-07T07:34:47.226Z,49.57
2018-05-07T07:35:26.167Z,49.67
2018-05-07T07:36:26.107Z,49.96
2018-05-07T07:37:26.050Z,49.57
2018-05-07T07:38:25.962Z,50.05
2018-05-07T07:39:25.981Z,49.77
2018-05-07T07:40:46.805Z,49.77
2018-05-07T07:41:25.756Z,49.67
2018-05-07T07:42:25.688Z,49.77
2018-05-07T07:43:25.611Z,49.57
2018-05-07T07:44:25.544Z,49.57
2018-05-07T07:45:25.481Z,50.25
2018-05-07T07:46:46.391Z,49.79
2018-05-07T07:47:25.332Z,49.79
2018-05-07T07:48:25.267Z,48.54
2018-05-07T07:49:25.209Z,48.54
2018-05-07T07:50:25.127Z,48.74
2018-05-07T07:51:25.055Z,48.83
2018-05-07T07:52:45.975Z,48.16
2018-05-07T07:53:24.955Z,48.07
2018-05-07T07:54:24.853Z,47.97
2018-05-07T07:55:24.779Z,48.16
2018-05-07T07:56:24.711Z,48.74
2018-05-07T07:57:24.646Z,48.74
2018-05-07T07:58:45.555Z,48.38
2018-05-07T07:59:24.552Z,48.18
2018-05-07T08:00:24.432Z,48.28
2018-05-07T08:01:24.358Z,48.08
2018-05-07T08:02:24.293Z,48.08
2018-05-07T08:03:24.228Z,48.18
2018-05-07T08:04:45.139Z,48.38
2018-05-07T08:05:24.084Z,48.28
2018-05-07T08:06:24.021Z,48.11
2018-05-07T08:07:23.949Z,47.53
2018-05-07T08:08:23.894Z,48.11
2018-05-07T08:09:23.810Z,47.63
2018-05-07T08:10:44.724Z,47.44
2018-05-07T08:11:23.668Z,47.15
2018-05-07T08:12:23.731Z,47.34
2018-05-07T08:13:23.531Z,47.44
2018-05-07T08:14:23.469Z,48.11
2018-05-07T08:15:23.393Z,48.11
2018-05-07T08:16:44.314Z,48.23
2018-05-07T08:17:23.266Z,48.03
2018-05-07T08:18:23.192Z,47.56
2018-05-07T08:19:23.119Z,48.33
2018-05-07T08:20:23.048Z,47.65
2018-05-07T08:21:22.982Z,46.98
2018-05-07T08:22:43.895Z,47.08
2018-05-07T08:23:22.844Z,46.50
2018-05-07T08:24:22.775Z,46.11
2018-05-07T08:25:22.712Z,46.14
2018-05-07T08:26:22.633Z,45.83
2018-05-07T08:27:22.567Z,45.94
2018-05-07T08:28:43.505Z,45.46
2018-05-07T08:29:22.432Z,45.84
2018-05-07T08:30:22.397Z,45.46
2018-05-07T08:31:22.342Z,45.07
2018-05-07T08:32:22.226Z,45.75
2018-05-07T08:33:22.155Z,45.27
2018-05-07T08:34:43.093Z,44.98
2018-05-07T08:35:22.021Z,45.20
2018-05-07T08:36:21.958Z,45.20
2018-05-07T08:37:21.887Z,44.79
2018-05-07T08:38:21.812Z,45.10
2018-05-07T08:39:21.755Z,45.10
2018-05-07T08:40:42.675Z,44.32
2018-05-07T08:41:21.604Z,44.04
2018-05-07T08:42:21.578Z,44.32
2018-05-07T08:43:21.476Z,44.42
2018-05-07T08:44:21.404Z,44.25
2018-05-07T08:45:21.339Z,43.38
2018-05-07T08:46:42.249Z,42.61
2018-05-07T08:47:21.199Z,42.30
2018-05-07T08:48:21.131Z,42.69
2018-05-07T08:49:21.065Z,41.75
2018-05-07T08:50:20.993Z,40.59
2018-05-07T08:51:20.926Z,40.39
2018-05-07T08:52:41.863Z,40.11
2018-05-07T08:53:20.792Z,40.30
2018-05-07T08:54:20.890Z,40.59
2018-05-07T08:55:20.665Z,40.12
2018-05-07T08:56:20.595Z,39.34
2018-05-07T08:57:20.525Z,40.12
2018-05-07T08:58:41.442Z,40.12
2018-05-07T08:59:20.406Z,40.80
2018-05-07T09:00:20.321Z,40.42
2018-05-07T09:01:20.252Z,39.36
2018-05-07T09:02:20.187Z,38.70
2018-05-07T09:03:20.115Z,38.41
2018-05-07T09:04:41.033Z,37.45
2018-05-07T09:05:19.986Z,38.02
2018-05-07T09:06:19.911Z,37.46
2018-05-07T09:07:19.848Z,37.27
2018-05-07T09:08:19.776Z,37.08
2018-05-07T09:09:19.711Z,37.75
2018-05-07T09:10:40.631Z,37.56
2018-05-07T09:11:19.580Z,36.71
2018-05-07T09:12:19.511Z,36.52
2018-05-07T09:13:19.508Z,36.21
2018-05-07T09:14:19.384Z,36.88
2018-05-07T09:15:19.333Z,37.48
2018-05-07T09:16:40.231Z,36.46
2018-05-07T09:17:19.224Z,35.21
2018-05-07T09:18:19.121Z,33.69
2018-05-07T09:19:19.052Z,33.02
2018-05-07T09:20:18.987Z,31.59
2018-05-07T09:21:18.927Z,30.94
2018-05-07T09:22:39.850Z,29.71
2018-05-07T09:23:18.795Z,29.68
2018-05-07T09:24:18.739Z,30.19
2018-05-07T09:25:18.672Z,28.86
2018-05-07T09:26:18.637Z,28.30
2018-05-07T09:27:18.553Z,26.67
2018-05-07T09:28:39.476Z,25.60
2018-05-07T09:29:18.427Z,25.71
2018-05-07T09:30:18.373Z,25.80
2018-05-07T09:31:18.312Z,25.30
2018-05-07T09:32:18.254Z,25.20
2018-05-07T09:33:18.191Z,27.37
2018-05-07T09:34:39.118Z,29.38
2018-05-07T09:35:18.083Z,28.90
2018-05-07T09:36:18.019Z,29.33
2018-05-07T09:37:17.955Z,27.23
2018-05-07T09:38:17.897Z,25.99
2018-05-07T09:39:17.839Z,26.15
2018-05-07T09:40:38.770Z,27.89
2018-05-07T09:41:17.725Z,26.72
2018-05-07T09:42:17.668Z,25.68
2018-05-07T09:43:17.630Z,24.73
2018-05-07T09:44:17.566Z,24.35
2018-05-07T09:45:17.496Z,23.32
2018-05-07T09:46:38.434Z,22.36
2018-05-07T09:47:17.395Z,22.36
2018-05-07T09:48:17.368Z,24.24
2018-05-07T09:49:17.279Z,24.43
2018-05-07T09:50:17.220Z,24.63
2018-05-07T09:51:17.168Z,23.75
2018-05-07T09:52:38.101Z,24.43
2018-05-07T09:53:17.071Z,24.74
2018-05-07T09:54:17.004Z,24.55
2018-05-07T09:55:17.025Z,24.46
2018-05-07T09:56:16.892Z,23.22
2018-05-07T09:57:16.838Z,22.35
2018-05-07T09:58:37.769Z,21.73
2018-05-07T09:59:16.735Z,22.05
2018-05-07T10:00:16.674Z,21.09
2018-05-07T10:01:16.626Z,20.51
2018-05-07T10:02:16.567Z,21.26
2018-05-07T10:03:16.513Z,20.90
2018-05-07T10:04:37.451Z,20.42
2018-05-07T10:05:16.429Z,20.02
2018-05-07T10:06:16.352Z,21.08
2018-05-07T10:07:16.304Z,20.22
2018-05-07T10:08:16.244Z,22.13
2018-05-07T10:09:16.189Z,21.55
2018-05-07T10:10:37.126Z,20.87
2018-05-07T10:11:16.091Z,20.61
2018-05-07T10:12:16.047Z,20.61
2018-05-07T10:13:15.982Z,19.73
2018-05-07T10:14:15.923Z,21.00
2018-05-07T10:15:15.870Z,20.04
2018-05-07T10:16:36.811Z,19.17
2018-05-07T10:17:15.766Z,19.56
2018-05-07T10:18:15.754Z,19.16
2018-05-07T10:19:15.664Z,20.79
2018-05-07T10:20:15.619Z,22.33
2018-05-07T10:21:15.558Z,23.07
2018-05-07T10:22:36.496Z,23.12
2018-05-07T10:23:15.466Z,21.49
2018-05-07T10:24:15.481Z,20.80
2018-05-07T10:25:15.347Z,20.80
2018-05-07T10:26:15.291Z,20.77
2018-05-07T10:27:15.255Z,22.60
2018-05-07T10:28:36.178Z,23.90
2018-05-07T10:29:15.131Z,25.54
2018-05-07T10:30:15.095Z,26.31
2018-05-07T10:31:15.033Z,26.33
2018-05-07T10:32:14.976Z,25.76
2018-05-07T10:33:14.921Z,25.38
2018-05-07T10:34:35.859Z,25.67
2018-05-07T10:35:14.829Z,24.44
2018-05-07T10:36:14.766Z,22.90
2018-05-07T10:37:14.699Z,23.07
2018-05-07T10:38:14.647Z,23.93
2018-05-07T10:39:14.587Z,25.08
2018-05-07T10:40:35.525Z,24.22
2018-05-07T10:41:14.476Z,25.27
2018-05-07T10:42:14.474Z,24.90
2018-05-07T10:43:14.388Z,25.38
2018-05-07T10:44:14.304Z,25.67
2018-05-07T10:45:14.281Z,27.19
2018-05-07T10:46:35.180Z,27.39
2018-05-07T10:47:14.135Z,26.40
2018-05-07T10:48:14.079Z,28.03
2018-05-07T10:49:14.113Z,28.33
2018-05-07T10:50:13.954Z,27.15
2018-05-07T10:51:13.904Z,27.07
2018-05-07T10:52:34.827Z,28.33
2018-05-07T10:53:13.780Z,27.76
2018-05-07T10:54:13.727Z,26.79
2018-05-07T10:55:13.657Z,25.90
2018-05-07T10:56:13.636Z,27.82
2018-05-07T10:57:13.537Z,28.89
2018-05-07T10:58:34.477Z,28.89
2018-05-07T10:59:13.428Z,28.79
2018-05-07T11:00:13.355Z,28.22
2018-05-07T11:01:13.291Z,27.93
2018-05-07T11:02:13.228Z,28.14
2018-05-07T11:03:13.166Z,28.14
2018-05-07T11:04:34.088Z,27.76
2018-05-07T11:05:13.039Z,27.64
2018-05-07T11:06:12.981Z,28.00
2018-05-07T11:07:12.912Z,29.08
2018-05-07T11:08:12.852Z,29.27
2018-05-07T11:09:12.802Z,28.69
2018-05-07T11:10:33.717Z,27.82
2018-05-07T11:11:12.660Z,28.03
2018-05-07T11:12:12.606Z,28.00
2018-05-07T11:13:12.535Z,28.40
2018-05-07T11:14:12.476Z,29.08
2018-05-07T11:15:12.419Z,28.98
2018-05-07T11:16:33.342Z,28.13
2018-05-07T11:17:12.280Z,27.73
2018-05-07T11:18:12.225Z,28.22
2018-05-07T11:19:12.163Z,28.11
2018-05-07T11:20:12.091Z,27.92
2018-05-07T11:21:12.028Z,27.14
2018-05-07T11:22:32.953Z,27.25
2018-05-07T11:23:11.904Z,27.25
2018-05-07T11:24:11.848Z,27.07
2018-05-07T11:25:11.772Z,26.50
2018-05-07T11:26:11.711Z,25.73
2018-05-07T11:27:11.649Z,26.79
2018-05-07T11:28:32.568Z,25.45
2018-05-07T11:29:11.523Z,24.88
2018-05-07T11:30:11.451Z,25.36
2018-05-07T11:31:11.401Z,25.07
2018-05-07T11:32:11.351Z,25.35
2018-05-07T11:33:11.267Z,25.99
2018-05-07T11:34:32.187Z,26.78
2018-05-07T11:35:11.155Z,25.13
2018-05-07T11:36:11.082Z,25.53
2018-05-07T11:37:11.021Z,25.54
2018-05-07T11:38:10.970Z,24.67
2018-05-07T11:39:10.915Z,23.70
2018-05-07T11:40:31.815Z,24.57
2018-05-07T11:41:10.781Z,24.96
2018-05-07T11:42:10.712Z,24.19
2018-05-07T11:43:10.656Z,24.28
2018-05-07T11:44:10.584Z,24.48
2018-05-07T11:45:10.538Z,24.56
2018-05-07T11:46:31.445Z,24.95
2018-05-07T11:47:10.409Z,25.43
2018-05-07T11:48:10.352Z,25.53
2018-05-07T11:49:10.285Z,26.09
2018-05-07T11:50:10.211Z,25.99
2018-05-07T11:51:10.169Z,27.06
2018-05-07T11:52:31.082Z,27.35
2018-05-07T11:53:10.077Z,26.48
2018-05-07T11:54:09.981Z,25.81
2018-05-07T11:55:09.917Z,25.62
2018-05-07T11:56:09.837Z,25.32
2018-05-07T11:57:09.787Z,25.41
2018-05-07T11:58:30.699Z,25.02
2018-05-07T11:59:09.650Z,24.26
2018-05-07T12:00:09.608Z,24.46
2018-05-07T12:01:09.535Z,24.46
2018-05-07T12:02:09.458Z,24.07
2018-05-07T12:03:09.408Z,24.74
2018-05-07T12:04:30.321Z,23.30
2018-05-07T12:05:09.272Z,23.21
2018-05-07T12:06:09.224Z,23.21
2018-05-07T12:07:09.162Z,23.79
2018-05-07T12:08:09.083Z,23.31
2018-05-07T12:09:09.058Z,23.50
2018-05-07T12:10:29.945Z,23.99
2018-05-07T12:11:08.893Z,24.18
2018-05-07T12:12:08.824Z,24.46
2018-05-07T12:13:08.769Z,24.17
2018-05-07T12:14:08.702Z,25.53
2018-05-07T12:15:08.635Z,23.69
2018-05-07T12:16:29.564Z,23.88
2018-05-07T12:17:08.516Z,23.97
2018-05-07T12:18:08.445Z,23.68
2018-05-07T12:19:08.382Z,23.66
2018-05-07T12:20:08.325Z,24.33
2018-05-07T12:21:08.253Z,25.12
2018-05-07T12:22:29.184Z,24.05
2018-05-07T12:23:08.177Z,24.24
2018-05-07T12:24:08.169Z,25.12
2018-05-07T12:25:08.000Z,23.95
2018-05-07T12:26:07.953Z,24.44
2018-05-07T12:27:07.879Z,24.44
2018-05-07T12:28:28.847Z,24.54
2018-05-07T12:29:07.760Z,25.02
2018-05-07T12:30:07.686Z,24.83
2018-05-07T12:31:07.627Z,24.92
2018-05-07T12:32:07.565Z,24.52
2018-05-07T12:33:07.494Z,24.43
2018-05-07T12:34:28.411Z,24.52
2018-05-07T12:35:07.411Z,25.40
2018-05-07T12:36:07.302Z,25.12
2018-05-07T12:37:07.231Z,25.70
2018-05-07T12:38:07.163Z,25.32
2018-05-07T12:39:07.104Z,24.45
2018-05-07T12:40:28.028Z,24.37
2018-05-07T12:41:06.972Z,24.35
2018-05-07T12:42:06.911Z,24.44
2018-05-07T12:43:06.857Z,24.83
2018-05-07T12:44:06.778Z,24.44
2018-05-07T12:45:06.720Z,24.43
2018-05-07T12:46:27.643Z,24.83
2018-05-07T12:47:06.593Z,24.05
2018-05-07T12:48:06.526Z,23.76
2018-05-07T12:49:06.461Z,24.15
2018-05-07T12:50:06.413Z,23.86
2018-05-07T12:51:06.324Z,23.76
2018-05-07T12:52:27.263Z,23.37